sensor_id;sensor_type;location;lat;lon;timestamp;temperature;humidity
67890;DHT22;54685;52.082;5.426;2023-01-10T00:01:16;5.90;99.90
67890;DHT22;54685;52.082;5.426;2023-01-10T00:03:43;5.90;99.90
67890;DHT22;54685;52.082;5.426;2023-01-10T00:06:10;5.80;99.90
67890;DHT22;54685;52.082;5.426;2023-01-10T00:08:37;5.80;99.90
67890;DHT22;54685;52.082;5.426;2023-01-10T00:11:03;5.80;99.90
67890;DHT22;54685;52.082;5.426;2023-01-10T00:13:54;5.70;99.90
67890;DHT22;54685;52.082;5.426;2023-01-10T00:16:22;5.70;99.90
67890;DHT22;54685;52.082;5.426;2023-01-10T00:18:48;5.70;99.90
67890;DHT22;54685;52.082;5.426;2023-01-10T00:21:18;5.70;99.90
67890;DHT22;54685;52.082;5.426;2023-01-10T00:23:45;5.80;99.90
67890;DHT22;54685;52.082;5.426;2023-01-10T00:26:14;5.80;99.90
67890;DHT22;54685;52.082;5.426;2023-01-10T00:28:41;5.80;99.90
67890;DHT22;54685;52.082;5.426;2023-01-10T00:31:09;5.80;99.90
67890;DHT22;54685;52.082;5.426;2023-01-10T00:33:37;5.80;99.90
67890;DHT22;54685;52.082;5.426;2023-01-10T00:36:06;5.90;99.90
67890;DHT22;54685;52.082;5.426;2023-01-10T00:38:36;5.90;99.90
67890;DHT22;54685;52.082;5.426;2023-01-10T00:41:03;5.90;99.90
67890;DHT22;54685;52.082;5.426;2023-01-10T00:43:50;5.90;99.90
67890;DHT22;54685;52.082;5.426;2023-01-10T00:46:22;6.00;99.90
67890;DHT22;54685;52.082;5.426;2023-01-10T00:48:50;6.00;99.90
67890;DHT22;54685;52.082;5.426;2023-01-10T00:51:16;6.00;99.90
67890;DHT22;54685;52.082;5.426;2023-01-10T00:53:43;6.00;99.90
67890;DHT22;54685;52.082;5.426;2023-01-10T00:56:10;5.90;99.90
67890;DHT22;54685;52.082;5.426;2023-01-10T00:58:37;6.00;99.90
67890;DHT22;54685;52.082;5.426;2023-01-10T01:01:04;6.00;99.90
67890;DHT22;54685;52.082;5.426;2023-01-10T01:03:31;6.00;99.90
67890;DHT22;54685;52.082;5.426;2023-01-10T01:06:03;6.00;99.90
67890;DHT22;54685;52.082;5.426;2023-01-10T01:08:31;6.00;99.90
67890;DHT22;54685;52.082;5.426;2023-01-10T01:10:59;6.00;99.90
67890;DHT22;54685;52.082;5.426;2023-01-10T01:13:26;6.00;99.90
67890;DHT22;54685;52.082;5.426;2023-01-10T01:15:56;6.00;99.90
67890;DHT22;54685;52.082;5.426;2023-01-10T01:18:23;6.00;99.90
67890;DHT22;54685;52.082;5.426;2023-01-10T01:20:55;6.00;99.90
67890;DHT22;54685;52.082;5.426;2023-01-10T01:23:23;6.00;99.90
67890;DHT22;54685;52.082;5.426;2023-01-10T01:25:53;6.00;99.90
67890;DHT22;54685;52.082;5.426;2023-01-10T01:28:20;5.90;99.90
67890;DHT22;54685;52.082;5.426;2023-01-10T01:30:50;6.00;99.90
67890;DHT22;54685;52.082;5.426;2023-01-10T01:33:17;5.90;99.90
67890;DHT22;54685;52.082;5.426;2023-01-10T01:35:46;5.90;99.90
67890;DHT22;54685;52.082;5.426;2023-01-10T01:38:13;5.90;99.90
67890;DHT22;54685;52.082;5.426;2023-01-10T01:40:40;5.90;99.90
67890;DHT22;54685;52.082;5.426;2023-01-10T01:43:25;5.90;99.90
67890;DHT22;54685;52.082;5.426;2023-01-10T01:45:53;5.90;99.90
67890;DHT22;54685;52.082;5.426;2023-01-10T01:51:17;5.80;99.90
67890;DHT22;54685;52.082;5.426;2023-01-10T01:53:49;5.90;99.90
67890;DHT22;54685;52.082;5.426;2023-01-10T01:56:27;5.90;99.90
67890;DHT22;54685;52.082;5.426;2023-01-10T01:59:14;5.90;99.90
67890;DHT22;54685;52.082;5.426;2023-01-10T02:01:45;5.90;99.90
67890;DHT22;54685;52.082;5.426;2023-01-10T02:04:17;5.90;99.90
67890;DHT22;54685;52.082;5.426;2023-01-10T02:06:47;5.90;99.90
67890;DHT22;54685;52.082;5.426;2023-01-10T02:09:28;5.80;99.90
67890;DHT22;54685;52.082;5.426;2023-01-10T02:11:58;5.80;99.90
67890;DHT22;54685;52.082;5.426;2023-01-10T02:14:25;5.80;99.90
67890;DHT22;54685;52.082;5.426;2023-01-10T02:16:52;5.80;99.90
67890;DHT22;54685;52.082;5.426;2023-01-10T02:20:05;5.80;99.90
67890;DHT22;54685;52.082;5.426;2023-01-10T02:28:29;5.90;99.90
67890;DHT22;54685;52.082;5.426;2023-01-10T02:34:00;5.90;99.90
67890;DHT22;54685;52.082;5.426;2023-01-10T02:37:08;5.90;99.90
67890;DHT22;54685;52.082;5.426;2023-01-10T02:40:06;6.00;99.90
67890;DHT22;54685;52.082;5.426;2023-01-10T02:42:42;6.00;99.90
67890;DHT22;54685;52.082;5.426;2023-01-10T02:45:20;6.10;99.90
67890;DHT22;54685;52.082;5.426;2023-01-10T02:47:48;6.10;99.90
67890;DHT22;54685;52.082;5.426;2023-01-10T02:50:28;6.10;99.90
67890;DHT22;54685;52.082;5.426;2023-01-10T02:52:58;6.10;99.90
67890;DHT22;54685;52.082;5.426;2023-01-10T02:55:37;6.10;99.90
67890;DHT22;54685;52.082;5.426;2023-01-10T03:03:51;6.20;99.90
67890;DHT22;54685;52.082;5.426;2023-01-10T03:09:25;6.20;99.90
67890;DHT22;54685;52.082;5.426;2023-01-10T03:12:06;6.20;99.90
67890;DHT22;54685;52.082;5.426;2023-01-10T03:14:37;6.20;99.90
67890;DHT22;54685;52.082;5.426;2023-01-10T03:17:07;6.20;99.90
67890;DHT22;54685;52.082;5.426;2023-01-10T03:19:41;6.20;99.90
67890;DHT22;54685;52.082;5.426;2023-01-10T03:22:09;6.20;99.90
67890;DHT22;54685;52.082;5.426;2023-01-10T03:24:46;6.20;99.90
67890;DHT22;54685;52.082;5.426;2023-01-10T03:27:21;6.20;99.90
67890;DHT22;54685;52.082;5.426;2023-01-10T03:32:22;6.10;99.90
67890;DHT22;54685;52.082;5.426;2023-01-10T03:34:52;6.10;99.90
67890;DHT22;54685;52.082;5.426;2023-01-10T03:40:14;6.10;99.90
67890;DHT22;54685;52.082;5.426;2023-01-10T03:46:08;6.00;99.90
67890;DHT22;54685;52.082;5.426;2023-01-10T03:48:41;6.00;99.90
67890;DHT22;54685;52.082;5.426;2023-01-10T03:51:09;6.00;99.90
67890;DHT22;54685;52.082;5.426;2023-01-10T03:53:38;6.00;99.90
67890;DHT22;54685;52.082;5.426;2023-01-10T03:56:12;6.00;99.90
67890;DHT22;54685;52.082;5.426;2023-01-10T03:58:39;6.00;99.90
67890;DHT22;54685;52.082;5.426;2023-01-10T04:01:06;6.00;99.90
67890;DHT22;54685;52.082;5.426;2023-01-10T04:03:36;6.00;99.90
67890;DHT22;54685;52.082;5.426;2023-01-10T04:06:03;6.00;99.90
67890;DHT22;54685;52.082;5.426;2023-01-10T04:08:30;6.00;99.90
67890;DHT22;54685;52.082;5.426;2023-01-10T04:10:57;6.00;99.90
67890;DHT22;54685;52.082;5.426;2023-01-10T04:13:23;6.00;99.90
67890;DHT22;54685;52.082;5.426;2023-01-10T04:15:50;6.00;99.90
67890;DHT22;54685;52.082;5.426;2023-01-10T04:18:17;6.00;99.90
67890;DHT22;54685;52.082;5.426;2023-01-10T04:20:44;6.00;99.90
67890;DHT22;54685;52.082;5.426;2023-01-10T04:23:11;6.00;99.90
67890;DHT22;54685;52.082;5.426;2023-01-10T04:25:38;6.00;99.90
67890;DHT22;54685;52.082;5.426;2023-01-10T04:28:04;6.00;99.90
67890;DHT22;54685;52.082;5.426;2023-01-10T04:30:31;6.00;99.90
67890;DHT22;54685;52.082;5.426;2023-01-10T04:32:58;6.00;99.90
67890;DHT22;54685;52.082;5.426;2023-01-10T04:35:25;6.00;99.90
67890;DHT22;54685;52.082;5.426;2023-01-10T04:37:51;6.00;99.90
67890;DHT22;54685;52.082;5.426;2023-01-10T04:40:18;6.00;99.90
67890;DHT22;54685;52.082;5.426;2023-01-10T04:42:48;6.00;99.90
67890;DHT22;54685;52.082;5.426;2023-01-10T04:45:15;6.00;99.90
67890;DHT22;54685;52.082;5.426;2023-01-10T04:47:48;5.90;99.90
67890;DHT22;54685;52.082;5.426;2023-01-10T04:50:15;5.90;99.90
67890;DHT22;54685;52.082;5.426;2023-01-10T04:52:42;5.90;99.90
67890;DHT22;54685;52.082;5.426;2023-01-10T04:55:09;5.90;99.90
67890;DHT22;54685;52.082;5.426;2023-01-10T04:57:36;5.90;99.90
67890;DHT22;54685;52.082;5.426;2023-01-10T05:00:03;5.90;99.90
67890;DHT22;54685;52.082;5.426;2023-01-10T05:02:30;5.90;99.90
67890;DHT22;54685;52.082;5.426;2023-01-10T05:04:57;5.80;99.90
67890;DHT22;54685;52.082;5.426;2023-01-10T05:07:23;5.90;99.90
67890;DHT22;54685;52.082;5.426;2023-01-10T05:09:50;5.80;99.90
67890;DHT22;54685;52.082;5.426;2023-01-10T05:12:17;5.90;99.90
67890;DHT22;54685;52.082;5.426;2023-01-10T05:14:44;5.80;99.90
67890;DHT22;54685;52.082;5.426;2023-01-10T05:17:10;5.80;99.90
67890;DHT22;54685;52.082;5.426;2023-01-10T05:19:37;5.80;99.90
67890;DHT22;54685;52.082;5.426;2023-01-10T05:22:04;5.70;99.90
67890;DHT22;54685;52.082;5.426;2023-01-10T05:24:30;5.70;99.90
67890;DHT22;54685;52.082;5.426;2023-01-10T05:26:57;5.70;99.90
67890;DHT22;54685;52.082;5.426;2023-01-10T05:29:24;5.70;99.90
67890;DHT22;54685;52.082;5.426;2023-01-10T05:31:51;5.70;99.90
67890;DHT22;54685;52.082;5.426;2023-01-10T05:34:18;5.70;99.90
67890;DHT22;54685;52.082;5.426;2023-01-10T05:36:45;5.70;99.90
67890;DHT22;54685;52.082;5.426;2023-01-10T05:39:11;5.70;99.90
67890;DHT22;54685;52.082;5.426;2023-01-10T05:41:39;5.70;99.90
67890;DHT22;54685;52.082;5.426;2023-01-10T05:44:06;5.80;99.90
67890;DHT22;54685;52.082;5.426;2023-01-10T05:46:33;5.80;99.90
67890;DHT22;54685;52.082;5.426;2023-01-10T05:49:00;5.90;99.90
67890;DHT22;54685;52.082;5.426;2023-01-10T05:51:27;5.90;99.90
67890;DHT22;54685;52.082;5.426;2023-01-10T05:53:53;5.90;99.90
67890;DHT22;54685;52.082;5.426;2023-01-10T05:56:20;6.00;99.90
67890;DHT22;54685;52.082;5.426;2023-01-10T05:58:47;6.00;99.90
67890;DHT22;54685;52.082;5.426;2023-01-10T06:01:19;6.10;99.90
67890;DHT22;54685;52.082;5.426;2023-01-10T06:03:49;6.10;99.90
67890;DHT22;54685;52.082;5.426;2023-01-10T06:06:16;6.10;99.90
67890;DHT22;54685;52.082;5.426;2023-01-10T06:08:42;6.20;99.90
67890;DHT22;54685;52.082;5.426;2023-01-10T06:11:09;6.20;99.90
67890;DHT22;54685;52.082;5.426;2023-01-10T06:13:36;6.20;99.90
67890;DHT22;54685;52.082;5.426;2023-01-10T06:16:03;6.20;99.90
67890;DHT22;54685;52.082;5.426;2023-01-10T06:18:30;6.20;99.90
67890;DHT22;54685;52.082;5.426;2023-01-10T06:20:57;6.20;99.90
67890;DHT22;54685;52.082;5.426;2023-01-10T06:23:23;6.20;99.90
67890;DHT22;54685;52.082;5.426;2023-01-10T06:25:50;6.20;99.90
67890;DHT22;54685;52.082;5.426;2023-01-10T06:28:17;6.20;99.90
67890;DHT22;54685;52.082;5.426;2023-01-10T06:30:44;6.20;99.90
67890;DHT22;54685;52.082;5.426;2023-01-10T06:33:11;6.20;99.90
67890;DHT22;54685;52.082;5.426;2023-01-10T06:35:38;6.20;99.90
67890;DHT22;54685;52.082;5.426;2023-01-10T06:38:05;6.20;99.90
67890;DHT22;54685;52.082;5.426;2023-01-10T06:40:32;6.20;99.90
67890;DHT22;54685;52.082;5.426;2023-01-10T06:42:59;6.20;99.90
67890;DHT22;54685;52.082;5.426;2023-01-10T06:45:26;6.20;99.90
67890;DHT22;54685;52.082;5.426;2023-01-10T06:47:53;6.20;99.90
67890;DHT22;54685;52.082;5.426;2023-01-10T06:50:20;6.20;99.90
67890;DHT22;54685;52.082;5.426;2023-01-10T06:52:57;6.20;99.90
67890;DHT22;54685;52.082;5.426;2023-01-10T06:55:24;6.20;99.90
67890;DHT22;54685;52.082;5.426;2023-01-10T06:58:09;6.30;99.90
67890;DHT22;54685;52.082;5.426;2023-01-10T07:00:36;6.30;99.90
67890;DHT22;54685;52.082;5.426;2023-01-10T07:03:03;6.30;99.90
67890;DHT22;54685;52.082;5.426;2023-01-10T07:05:32;6.20;99.90
67890;DHT22;54685;52.082;5.426;2023-01-10T07:07:59;6.20;99.90
67890;DHT22;54685;52.082;5.426;2023-01-10T07:10:27;6.20;99.90
67890;DHT22;54685;52.082;5.426;2023-01-10T07:12:55;6.20;99.90
67890;DHT22;54685;52.082;5.426;2023-01-10T07:15:22;6.20;99.90
67890;DHT22;54685;52.082;5.426;2023-01-10T07:17:49;6.20;99.90
67890;DHT22;54685;52.082;5.426;2023-01-10T07:20:16;6.10;99.90
67890;DHT22;54685;52.082;5.426;2023-01-10T07:22:43;6.10;99.90
67890;DHT22;54685;52.082;5.426;2023-01-10T07:25:09;6.00;99.90
67890;DHT22;54685;52.082;5.426;2023-01-10T07:27:36;6.00;99.90
67890;DHT22;54685;52.082;5.426;2023-01-10T07:30:06;6.00;99.90
67890;DHT22;54685;52.082;5.426;2023-01-10T07:32:40;5.90;99.90
67890;DHT22;54685;52.082;5.426;2023-01-10T07:35:08;5.90;99.90
67890;DHT22;54685;52.082;5.426;2023-01-10T07:37:34;5.90;99.90
67890;DHT22;54685;52.082;5.426;2023-01-10T07:40:01;5.90;99.90
67890;DHT22;54685;52.082;5.426;2023-01-10T07:42:31;5.90;99.90
67890;DHT22;54685;52.082;5.426;2023-01-10T07:44:57;5.90;99.90
67890;DHT22;54685;52.082;5.426;2023-01-10T07:47:24;5.90;99.90
67890;DHT22;54685;52.082;5.426;2023-01-10T07:49:51;5.90;99.90
67890;DHT22;54685;52.082;5.426;2023-01-10T07:52:18;5.90;99.90
67890;DHT22;54685;52.082;5.426;2023-01-10T07:54:44;5.90;99.90
67890;DHT22;54685;52.082;5.426;2023-01-10T07:57:11;5.90;99.90
67890;DHT22;54685;52.082;5.426;2023-01-10T07:59:38;5.90;99.90
67890;DHT22;54685;52.082;5.426;2023-01-10T08:02:05;5.90;99.90
67890;DHT22;54685;52.082;5.426;2023-01-10T08:04:31;5.90;99.90
67890;DHT22;54685;52.082;5.426;2023-01-10T08:06:58;5.90;99.90
67890;DHT22;54685;52.082;5.426;2023-01-10T08:09:25;5.90;99.90
67890;DHT22;54685;52.082;5.426;2023-01-10T08:11:52;5.80;99.90
67890;DHT22;54685;52.082;5.426;2023-01-10T08:14:21;5.90;99.90
67890;DHT22;54685;52.082;5.426;2023-01-10T08:16:48;5.90;99.90
67890;DHT22;54685;52.082;5.426;2023-01-10T08:19:15;5.80;99.90
67890;DHT22;54685;52.082;5.426;2023-01-10T08:21:43;5.80;99.90
67890;DHT22;54685;52.082;5.426;2023-01-10T08:24:10;5.80;99.90
67890;DHT22;54685;52.082;5.426;2023-01-10T08:26:37;5.70;99.90
67890;DHT22;54685;52.082;5.426;2023-01-10T08:29:03;5.70;99.90
67890;DHT22;54685;52.082;5.426;2023-01-10T08:31:30;5.70;99.90
67890;DHT22;54685;52.082;5.426;2023-01-10T08:33:57;5.70;99.90
67890;DHT22;54685;52.082;5.426;2023-01-10T08:36:24;5.70;99.90
67890;DHT22;54685;52.082;5.426;2023-01-10T08:38:54;5.70;99.90
67890;DHT22;54685;52.082;5.426;2023-01-10T08:41:20;5.70;99.90
67890;DHT22;54685;52.082;5.426;2023-01-10T08:43:49;5.80;99.90
67890;DHT22;54685;52.082;5.426;2023-01-10T08:46:16;5.80;99.90
67890;DHT22;54685;52.082;5.426;2023-01-10T08:48:43;5.80;99.90
67890;DHT22;54685;52.082;5.426;2023-01-10T08:51:10;5.90;99.90
67890;DHT22;54685;52.082;5.426;2023-01-10T08:53:40;5.90;99.90
67890;DHT22;54685;52.082;5.426;2023-01-10T08:56:07;5.90;99.90
67890;DHT22;54685;52.082;5.426;2023-01-10T08:58:35;5.90;99.90
67890;DHT22;54685;52.082;5.426;2023-01-10T09:01:08;5.90;99.90
67890;DHT22;54685;52.082;5.426;2023-01-10T09:03:37;6.00;99.90
67890;DHT22;54685;52.082;5.426;2023-01-10T09:06:06;6.00;99.90
67890;DHT22;54685;52.082;5.426;2023-01-10T09:08:37;6.00;99.90
67890;DHT22;54685;52.082;5.426;2023-01-10T09:11:05;6.00;99.90
67890;DHT22;54685;52.082;5.426;2023-01-10T09:13:32;6.10;99.90
67890;DHT22;54685;52.082;5.426;2023-01-10T09:16:02;6.10;99.90
67890;DHT22;54685;52.082;5.426;2023-01-10T09:18:29;6.10;99.90
67890;DHT22;54685;52.082;5.426;2023-01-10T09:20:56;6.10;99.90
67890;DHT22;54685;52.082;5.426;2023-01-10T09:23:23;6.10;99.90
67890;DHT22;54685;52.082;5.426;2023-01-10T09:25:52;6.10;99.90
67890;DHT22;54685;52.082;5.426;2023-01-10T09:28:20;6.10;99.90
67890;DHT22;54685;52.082;5.426;2023-01-10T09:30:47;6.10;99.90
67890;DHT22;54685;52.082;5.426;2023-01-10T09:33:15;6.10;99.90
67890;DHT22;54685;52.082;5.426;2023-01-10T09:35:42;6.10;99.90
67890;DHT22;54685;52.082;5.426;2023-01-10T09:38:12;6.10;99.90
67890;DHT22;54685;52.082;5.426;2023-01-10T09:46:50;6.10;99.90
67890;DHT22;54685;52.082;5.426;2023-01-10T09:52:14;6.10;99.90
67890;DHT22;54685;52.082;5.426;2023-01-10T09:54:46;6.10;99.90
67890;DHT22;54685;52.082;5.426;2023-01-10T09:57:16;6.10;99.90
67890;DHT22;54685;52.082;5.426;2023-01-10T09:59:46;6.10;99.90
67890;DHT22;54685;52.082;5.426;2023-01-10T10:02:40;6.10;99.90
67890;DHT22;54685;52.082;5.426;2023-01-10T10:05:26;6.10;99.90
67890;DHT22;54685;52.082;5.426;2023-01-10T10:07:58;6.10;99.90
67890;DHT22;54685;52.082;5.426;2023-01-10T10:10:35;6.20;99.90
67890;DHT22;54685;52.082;5.426;2023-01-10T10:13:20;6.10;99.90
67890;DHT22;54685;52.082;5.426;2023-01-10T10:21:30;6.10;99.90
67890;DHT22;54685;52.082;5.426;2023-01-10T10:27:04;6.20;99.90
67890;DHT22;54685;52.082;5.426;2023-01-10T10:29:38;6.10;99.90
67890;DHT22;54685;52.082;5.426;2023-01-10T10:32:35;6.10;99.90
67890;DHT22;54685;52.082;5.426;2023-01-10T10:35:32;6.10;99.90
67890;DHT22;54685;52.082;5.426;2023-01-10T10:38:09;6.10;99.90
67890;DHT22;54685;52.082;5.426;2023-01-10T10:40:39;6.10;99.90
67890;DHT22;54685;52.082;5.426;2023-01-10T10:43:21;6.10;99.90
67890;DHT22;54685;52.082;5.426;2023-01-10T10:45:54;6.10;99.90
67890;DHT22;54685;52.082;5.426;2023-01-10T10:48:24;6.10;99.90
67890;DHT22;54685;52.082;5.426;2023-01-10T10:51:07;6.10;99.90
67890;DHT22;54685;52.082;5.426;2023-01-10T10:53:36;6.10;99.90
67890;DHT22;54685;52.082;5.426;2023-01-10T10:56:05;6.00;99.90
67890;DHT22;54685;52.082;5.426;2023-01-10T10:58:33;6.10;99.90
67890;DHT22;54685;52.082;5.426;2023-01-10T11:01:00;6.10;99.90
67890;DHT22;54685;52.082;5.426;2023-01-10T11:03:41;6.10;99.90
67890;DHT22;54685;52.082;5.426;2023-01-10T11:06:10;6.10;99.90
67890;DHT22;54685;52.082;5.426;2023-01-10T11:08:42;6.10;99.90
67890;DHT22;54685;52.082;5.426;2023-01-10T11:11:20;6.10;99.90
67890;DHT22;54685;52.082;5.426;2023-01-10T11:13:57;6.10;99.90
67890;DHT22;54685;52.082;5.426;2023-01-10T11:16:33;6.10;99.90
67890;DHT22;54685;52.082;5.426;2023-01-10T11:19:25;6.10;99.90
67890;DHT22;54685;52.082;5.426;2023-01-10T11:21:56;6.10;99.90
67890;DHT22;54685;52.082;5.426;2023-01-10T11:24:48;6.10;99.90
67890;DHT22;54685;52.082;5.426;2023-01-10T11:27:35;6.10;99.90
67890;DHT22;54685;52.082;5.426;2023-01-10T11:30:37;6.10;99.90
67890;DHT22;54685;52.082;5.426;2023-01-10T11:33:07;6.20;99.90
67890;DHT22;54685;52.082;5.426;2023-01-10T11:36:02;6.20;99.90
67890;DHT22;54685;52.082;5.426;2023-01-10T11:38:30;6.20;99.90
67890;DHT22;54685;52.082;5.426;2023-01-10T11:41:22;6.20;99.90
67890;DHT22;54685;52.082;5.426;2023-01-10T11:43:50;6.20;99.90
67890;DHT22;54685;52.082;5.426;2023-01-10T11:46:19;6.20;99.90
67890;DHT22;54685;52.082;5.426;2023-01-10T11:48:51;6.20;99.90
67890;DHT22;54685;52.082;5.426;2023-01-10T11:51:43;6.30;99.90
67890;DHT22;54685;52.082;5.426;2023-01-10T11:54:23;6.30;99.90
67890;DHT22;54685;52.082;5.426;2023-01-10T11:59:32;6.30;99.90
67890;DHT22;54685;52.082;5.426;2023-01-10T12:04:49;6.30;99.90
67890;DHT22;54685;52.082;5.426;2023-01-10T12:07:17;6.30;99.90
67890;DHT22;54685;52.082;5.426;2023-01-10T12:10:01;6.30;99.90
67890;DHT22;54685;52.082;5.426;2023-01-10T12:12:34;6.40;99.90
67890;DHT22;54685;52.082;5.426;2023-01-10T12:15:26;6.40;99.90
67890;DHT22;54685;52.082;5.426;2023-01-10T12:17:57;6.40;99.90
67890;DHT22;54685;52.082;5.426;2023-01-10T12:20:47;6.40;99.90
67890;DHT22;54685;52.082;5.426;2023-01-10T12:23:20;6.40;99.90
67890;DHT22;54685;52.082;5.426;2023-01-10T12:25:48;6.40;99.90
67890;DHT22;54685;52.082;5.426;2023-01-10T12:28:27;6.50;99.90
67890;DHT22;54685;52.082;5.426;2023-01-10T12:30:58;6.50;99.90
67890;DHT22;54685;52.082;5.426;2023-01-10T12:33:29;6.50;99.90
67890;DHT22;54685;52.082;5.426;2023-01-10T12:36:01;6.50;99.90
67890;DHT22;54685;52.082;5.426;2023-01-10T12:44:29;6.60;99.90
67890;DHT22;54685;52.082;5.426;2023-01-10T12:50:11;6.60;99.90
67890;DHT22;54685;52.082;5.426;2023-01-10T12:55:15;6.60;99.90
67890;DHT22;54685;52.082;5.426;2023-01-10T12:57:45;6.60;99.90
67890;DHT22;54685;52.082;5.426;2023-01-10T13:02:47;6.70;99.90
67890;DHT22;54685;52.082;5.426;2023-01-10T13:05:23;6.70;99.90
67890;DHT22;54685;52.082;5.426;2023-01-10T13:07:53;6.70;99.90
67890;DHT22;54685;52.082;5.426;2023-01-10T13:10:22;6.70;99.90
67890;DHT22;54685;52.082;5.426;2023-01-10T13:15:33;6.80;99.90
67890;DHT22;54685;52.082;5.426;2023-01-10T13:18:18;6.70;99.90
67890;DHT22;54685;52.082;5.426;2023-01-10T13:21:08;6.70;99.90
67890;DHT22;54685;52.082;5.426;2023-01-10T13:23:46;6.80;99.90
67890;DHT22;54685;52.082;5.426;2023-01-10T13:26:13;6.80;99.90
67890;DHT22;54685;52.082;5.426;2023-01-10T13:28:58;6.80;99.90
67890;DHT22;54685;52.082;5.426;2023-01-10T13:31:32;6.90;99.90
67890;DHT22;54685;52.082;5.426;2023-01-10T13:34:18;6.90;99.90
67890;DHT22;54685;52.082;5.426;2023-01-10T13:36:54;6.90;99.90
67890;DHT22;54685;52.082;5.426;2023-01-10T13:39:34;6.90;99.90
67890;DHT22;54685;52.082;5.426;2023-01-10T13:55:49;7.00;99.90
67890;DHT22;54685;52.082;5.426;2023-01-10T14:01:26;7.10;99.90
67890;DHT22;54685;52.082;5.426;2023-01-10T14:04:33;7.10;99.90
67890;DHT22;54685;52.082;5.426;2023-01-10T14:07:04;7.10;99.90
67890;DHT22;54685;52.082;5.426;2023-01-10T14:09:44;7.10;99.90
67890;DHT22;54685;52.082;5.426;2023-01-10T14:12:38;7.10;99.90
67890;DHT22;54685;52.082;5.426;2023-01-10T14:15:26;7.10;99.90
67890;DHT22;54685;52.082;5.426;2023-01-10T14:17:58;7.10;99.90
67890;DHT22;54685;52.082;5.426;2023-01-10T14:20:27;7.10;99.90
67890;DHT22;54685;52.082;5.426;2023-01-10T14:25:34;7.00;99.90
67890;DHT22;54685;52.082;5.426;2023-01-10T14:28:02;6.90;99.90
67890;DHT22;54685;52.082;5.426;2023-01-10T14:30:32;6.90;99.90
67890;DHT22;54685;52.082;5.426;2023-01-10T14:33:15;6.80;99.90
67890;DHT22;54685;52.082;5.426;2023-01-10T14:35:48;6.70;99.90
67890;DHT22;54685;52.082;5.426;2023-01-10T14:38:28;6.70;99.90
67890;DHT22;54685;52.082;5.426;2023-01-10T14:41:01;6.60;99.90
67890;DHT22;54685;52.082;5.426;2023-01-10T14:43:37;6.60;99.90
67890;DHT22;54685;52.082;5.426;2023-01-10T14:46:12;6.50;99.90
67890;DHT22;54685;52.082;5.426;2023-01-10T14:48:44;6.50;99.90
67890;DHT22;54685;52.082;5.426;2023-01-10T14:51:30;6.50;99.90
67890;DHT22;54685;52.082;5.426;2023-01-10T14:54:11;6.40;99.90
67890;DHT22;54685;52.082;5.426;2023-01-10T14:56:46;6.40;99.90
67890;DHT22;54685;52.082;5.426;2023-01-10T15:01:46;6.40;99.90
67890;DHT22;54685;52.082;5.426;2023-01-10T15:04:18;6.40;99.90
67890;DHT22;54685;52.082;5.426;2023-01-10T15:07:10;6.40;99.90
67890;DHT22;54685;52.082;5.426;2023-01-10T15:09:38;6.30;99.90
67890;DHT22;54685;52.082;5.426;2023-01-10T15:12:08;6.30;99.90
67890;DHT22;54685;52.082;5.426;2023-01-10T15:14:37;6.30;99.90
67890;DHT22;54685;52.082;5.426;2023-01-10T15:17:05;6.30;99.90
67890;DHT22;54685;52.082;5.426;2023-01-10T15:19:36;6.30;99.90
67890;DHT22;54685;52.082;5.426;2023-01-10T15:22:28;6.30;99.90
67890;DHT22;54685;52.082;5.426;2023-01-10T15:27:30;6.20;99.90
67890;DHT22;54685;52.082;5.426;2023-01-10T15:29:58;6.20;99.90
67890;DHT22;54685;52.082;5.426;2023-01-10T15:34:58;6.20;99.90
67890;DHT22;54685;52.082;5.426;2023-01-10T15:37:33;6.20;99.90
67890;DHT22;54685;52.082;5.426;2023-01-10T15:40:04;6.20;99.90
67890;DHT22;54685;52.082;5.426;2023-01-10T15:42:32;6.20;99.90
67890;DHT22;54685;52.082;5.426;2023-01-10T15:45:26;6.10;99.90
67890;DHT22;54685;52.082;5.426;2023-01-10T15:47:54;6.10;99.90
67890;DHT22;54685;52.082;5.426;2023-01-10T15:50:32;6.10;99.90
67890;DHT22;54685;52.082;5.426;2023-01-10T15:53:02;6.20;99.90
67890;DHT22;54685;52.082;5.426;2023-01-10T15:58:30;6.10;99.90
67890;DHT22;54685;52.082;5.426;2023-01-10T16:00:58;6.10;99.90
67890;DHT22;54685;52.082;5.426;2023-01-10T16:03:36;6.10;99.90
67890;DHT22;54685;52.082;5.426;2023-01-10T16:06:05;6.10;99.90
67890;DHT22;54685;52.082;5.426;2023-01-10T16:08:37;6.10;99.90
67890;DHT22;54685;52.082;5.426;2023-01-10T16:11:06;6.10;99.90
67890;DHT22;54685;52.082;5.426;2023-01-10T16:13:34;6.10;99.90
67890;DHT22;54685;52.082;5.426;2023-01-10T16:16:10;6.00;99.90
67890;DHT22;54685;52.082;5.426;2023-01-10T16:18:39;6.00;99.90
67890;DHT22;54685;52.082;5.426;2023-01-10T16:21:06;6.00;99.90
67890;DHT22;54685;52.082;5.426;2023-01-10T16:23:36;6.00;99.90
67890;DHT22;54685;52.082;5.426;2023-01-10T16:26:05;6.00;99.90
67890;DHT22;54685;52.082;5.426;2023-01-10T16:28:34;5.90;99.90
67890;DHT22;54685;52.082;5.426;2023-01-10T16:31:04;5.90;99.90
67890;DHT22;54685;52.082;5.426;2023-01-10T16:33:32;5.90;99.90
67890;DHT22;54685;52.082;5.426;2023-01-10T16:36:00;5.90;99.90
67890;DHT22;54685;52.082;5.426;2023-01-10T16:38:28;5.90;99.90
67890;DHT22;54685;52.082;5.426;2023-01-10T16:41:01;5.90;99.90
67890;DHT22;54685;52.082;5.426;2023-01-10T16:43:48;5.90;99.90
67890;DHT22;54685;52.082;5.426;2023-01-10T16:46:15;5.90;99.90
67890;DHT22;54685;52.082;5.426;2023-01-10T16:48:42;5.90;99.90
67890;DHT22;54685;52.082;5.426;2023-01-10T16:51:17;5.90;99.90
67890;DHT22;54685;52.082;5.426;2023-01-10T16:53:47;5.90;99.90
67890;DHT22;54685;52.082;5.426;2023-01-10T16:56:19;5.90;99.90
67890;DHT22;54685;52.082;5.426;2023-01-10T16:58:49;6.00;99.90
67890;DHT22;54685;52.082;5.426;2023-01-10T17:01:18;5.90;99.90
67890;DHT22;54685;52.082;5.426;2023-01-10T17:03:47;5.90;99.90
67890;DHT22;54685;52.082;5.426;2023-01-10T17:06:14;5.90;99.90
67890;DHT22;54685;52.082;5.426;2023-01-10T17:08:42;5.90;99.90
67890;DHT22;54685;52.082;5.426;2023-01-10T17:11:25;5.90;99.90
67890;DHT22;54685;52.082;5.426;2023-01-10T17:13:53;6.00;99.90
67890;DHT22;54685;52.082;5.426;2023-01-10T17:16:20;5.90;99.90
67890;DHT22;54685;52.082;5.426;2023-01-10T17:18:47;5.90;99.90
67890;DHT22;54685;52.082;5.426;2023-01-10T17:21:18;5.90;99.90
67890;DHT22;54685;52.082;5.426;2023-01-10T17:23:46;5.90;99.90
67890;DHT22;54685;52.082;5.426;2023-01-10T17:26:15;5.90;99.90
67890;DHT22;54685;52.082;5.426;2023-01-10T17:28:43;5.90;99.90
67890;DHT22;54685;52.082;5.426;2023-01-10T17:31:16;5.90;99.90
67890;DHT22;54685;52.082;5.426;2023-01-10T17:33:45;6.00;99.90
67890;DHT22;54685;52.082;5.426;2023-01-10T17:36:14;6.00;99.90
67890;DHT22;54685;52.082;5.426;2023-01-10T17:38:44;6.00;99.90
67890;DHT22;54685;52.082;5.426;2023-01-10T17:41:11;6.00;99.90
67890;DHT22;54685;52.082;5.426;2023-01-10T17:43:38;6.10;99.90
67890;DHT22;54685;52.082;5.426;2023-01-10T17:46:07;6.00;99.90
67890;DHT22;54685;52.082;5.426;2023-01-10T17:48:36;6.10;99.90
67890;DHT22;54685;52.082;5.426;2023-01-10T17:51:04;6.00;99.90